createdAt,value
2019-04-01T00:02:14.508Z,95822.00
2019-04-01T00:07:44.301Z,95817.00
2019-04-01T00:13:14.035Z,95825.00
2019-04-01T00:18:43.699Z,95814.00
2019-04-01T00:24:13.424Z,95811.00
2019-04-01T00:29:43.135Z,95803.00
2019-04-01T00:35:16.234Z,95806.00
2019-04-01T00:40:46.008Z,95795.00
2019-04-01T00:46:16.938Z,95794.00
2019-04-01T00:51:46.478Z,95791.00
2019-04-01T00:57:16.228Z,95798.00
2019-04-01T01:02:45.970Z,95798.00
2019-04-01T01:08:15.708Z,95791.00
2019-04-01T01:13:45.045Z,95796.00
2019-04-01T01:19:14.445Z,95786.00
2019-04-01T01:24:43.798Z,95795.00
2019-04-01T01:30:14.665Z,95788.00
2019-04-01T01:35:44.055Z,95784.00
2019-04-01T01:41:13.484Z,95784.00
2019-04-01T01:46:48.673Z,95786.00
2019-04-01T01:52:19.002Z,95789.00
2019-04-01T01:57:48.394Z,95787.00
2019-04-01T02:03:17.811Z,95784.00
2019-04-01T02:08:49.363Z,95783.00
2019-04-01T02:14:18.684Z,95782.00
2019-04-01T02:19:48.071Z,95784.00
2019-04-01T02:25:17.575Z,95784.00
2019-04-01T02:30:46.905Z,95782.00
2019-04-01T02:36:16.342Z,95777.00
2019-04-01T02:41:45.714Z,95779.00
2019-04-01T02:47:15.000Z,95786.00
2019-04-01T02:52:44.355Z,95775.00
2019-04-01T02:58:13.700Z,95763.00
2019-04-01T03:03:43.022Z,95778.00
2019-04-01T03:09:12.366Z,95773.00
2019-04-01T03:14:41.741Z,95773.00
2019-04-01T03:20:11.300Z,95763.00
2019-04-01T03:25:40.753Z,95775.00
2019-04-01T03:31:10.088Z,95770.00
2019-04-01T03:36:39.480Z,95768.00
2019-04-01T03:42:08.825Z,95767.00
2019-04-01T03:47:38.227Z,95769.00
2019-04-01T03:53:07.563Z,95771.00
2019-04-01T03:58:36.870Z,95768.00
2019-04-01T04:04:06.324Z,95756.00
2019-04-01T04:09:35.642Z,95769.00
2019-04-01T04:15:06.849Z,95775.00
2019-04-01T04:20:36.372Z,95774.00
2019-04-01T04:26:06.209Z,95774.00
2019-04-01T04:31:35.770Z,95780.00
2019-04-01T04:37:05.355Z,95775.00
2019-04-01T04:42:34.825Z,95780.00
2019-04-01T04:48:04.332Z,95774.00
2019-04-01T04:53:35.145Z,95768.00
2019-04-01T04:59:06.788Z,95767.00
2019-04-01T05:04:36.327Z,95773.00
2019-04-01T05:10:08.239Z,95779.00
2019-04-01T05:15:37.810Z,95766.00
2019-04-01T05:21:07.452Z,95775.00
2019-04-01T05:26:37.902Z,95777.00
2019-04-01T05:32:08.254Z,95779.00
2019-04-01T05:37:40.704Z,95781.00
2019-04-01T05:43:10.877Z,95781.00
2019-04-01T05:48:46.581Z,95779.00
2019-04-01T05:54:16.043Z,95786.00
2019-04-01T05:59:45.616Z,95791.00
2019-04-01T06:05:15.091Z,95782.00
2019-04-01T06:10:45.558Z,95787.00
2019-04-01T06:16:15.137Z,95787.00
2019-04-01T06:21:44.615Z,95798.00
2019-04-01T06:27:14.166Z,95798.00
2019-04-01T06:32:43.635Z,95795.00
2019-04-01T06:38:13.066Z,95793.00
2019-04-01T06:43:42.556Z,95806.00
2019-04-01T06:49:11.919Z,95798.00
2019-04-01T06:54:41.424Z,95799.00
2019-04-01T07:00:11.689Z,95800.00
2019-04-01T07:05:41.118Z,95796.00
2019-04-01T07:11:10.588Z,95803.00
2019-04-01T07:16:40.306Z,95801.00
2019-04-01T07:22:09.792Z,95802.00
2019-04-01T07:27:39.437Z,95804.00
2019-04-01T07:33:08.983Z,95797.00
2019-04-01T07:38:38.450Z,95805.00
2019-04-01T07:44:07.959Z,95808.00
2019-04-01T07:49:37.371Z,95804.00
2019-04-01T07:55:08.865Z,95805.00
2019-04-01T08:00:38.346Z,95794.00
2019-04-01T08:06:07.757Z,95799.00
2019-04-01T08:11:37.229Z,95809.00
2019-04-01T08:17:06.739Z,95806.00
2019-04-01T08:22:36.552Z,95807.00
2019-04-01T08:28:06.166Z,95805.00
2019-04-01T08:33:38.522Z,95817.00
2019-04-01T08:39:13.722Z,95811.00
2019-04-01T08:44:43.151Z,95815.00
2019-04-01T08:50:12.946Z,95825.00
2019-04-01T08:55:42.370Z,95820.00
2019-04-01T09:01:11.850Z,95809.00
2019-04-01T09:06:41.328Z,95799.00
2019-04-01T09:12:10.874Z,95799.00
2019-04-01T09:17:40.745Z,95803.00
2019-04-01T09:23:10.325Z,95796.00
2019-04-01T09:28:39.677Z,95800.00
2019-04-01T09:34:09.064Z,95794.00
2019-04-01T09:39:39.493Z,95797.00
2019-04-01T09:45:09.850Z,95797.00
2019-04-01T09:50:39.263Z,95784.00
2019-04-01T09:56:08.666Z,95797.00
2019-04-01T10:01:38.212Z,95775.00
2019-04-01T10:07:07.804Z,95783.00
2019-04-01T10:12:37.176Z,95781.00
2019-04-01T10:18:06.745Z,95788.00
2019-04-01T10:23:36.224Z,95768.00
2019-04-01T10:29:05.712Z,95760.00
2019-04-01T10:34:35.296Z,95758.00
2019-04-01T10:40:07.746Z,95762.00
2019-04-01T10:45:37.182Z,95761.00
2019-04-01T10:51:06.629Z,95760.00
2019-04-01T10:56:36.262Z,95758.00
2019-04-01T11:02:05.882Z,95766.00
2019-04-01T11:07:35.364Z,95750.00
2019-04-01T11:13:04.753Z,95745.00
2019-04-01T11:18:34.426Z,95728.00
2019-04-01T11:24:07.451Z,95729.00
2019-04-01T11:29:35.469Z,95738.00
2019-04-01T11:35:06.814Z,95722.00
2019-04-01T11:40:38.767Z,95720.00
2019-04-01T11:46:07.838Z,95716.00
2019-04-01T11:51:39.989Z,95719.00
2019-04-01T11:57:08.657Z,95702.00
2019-04-01T12:02:38.053Z,95704.00
2019-04-01T12:08:07.445Z,95682.00
2019-04-01T12:13:36.865Z,95686.00
2019-04-01T12:19:06.275Z,95676.00
2019-04-01T12:24:35.752Z,95655.00
2019-04-01T12:30:06.470Z,95652.00
2019-04-01T12:35:36.980Z,95655.00
2019-04-01T12:41:06.460Z,95658.00
2019-04-01T12:46:36.174Z,95649.00
2019-04-01T12:52:05.739Z,95643.00
2019-04-01T12:57:35.124Z,95633.00
2019-04-01T13:03:04.778Z,95632.00
2019-04-01T13:08:34.260Z,95629.00
2019-04-01T13:14:04.597Z,95633.00
2019-04-01T13:19:33.924Z,95619.00
2019-04-01T13:25:05.622Z,95618.00
2019-04-01T13:30:34.543Z,95614.00
2019-04-01T13:36:07.580Z,95595.00
2019-04-01T13:41:42.366Z,95603.00
2019-04-01T13:47:06.530Z,95591.00
2019-04-01T13:52:35.879Z,95566.00
2019-04-01T13:58:05.572Z,95562.00
2019-04-01T14:03:35.200Z,95549.00
2019-04-01T14:09:07.384Z,95537.00
2019-04-01T14:14:37.080Z,95549.00
2019-04-01T14:20:07.147Z,95501.00
2019-04-01T14:25:37.526Z,95508.00
2019-04-01T14:31:06.946Z,95510.00
2019-04-01T14:36:37.911Z,95498.00
2019-04-01T14:42:08.732Z,95491.00
2019-04-01T14:47:55.631Z,95489.00
2019-04-01T14:53:10.160Z,95484.00
2019-04-01T14:58:39.838Z,95487.00
2019-04-01T15:04:09.177Z,95489.00
2019-04-01T15:09:38.658Z,95473.00
2019-04-01T15:15:09.377Z,95478.00
2019-04-01T15:20:38.927Z,95497.00
2019-04-01T15:26:08.635Z,95502.00
2019-04-01T15:31:38.252Z,95502.00
2019-04-01T15:37:08.094Z,95520.00
2019-04-01T15:42:38.933Z,95515.00
2019-04-01T15:48:09.357Z,95499.00
2019-04-01T15:54:01.348Z,95477.00
2019-04-01T15:59:31.596Z,95497.00
2019-04-01T16:05:01.769Z,95486.00
2019-04-01T16:10:31.291Z,95480.00
2019-04-01T16:16:01.207Z,95502.00
2019-04-01T16:21:31.493Z,95508.00
2019-04-01T16:27:01.503Z,95513.00
2019-04-01T16:32:31.476Z,95512.00
2019-04-01T16:38:01.053Z,95513.00
2019-04-01T16:43:31.537Z,95505.00
2019-04-01T16:49:02.274Z,95505.00
2019-04-01T16:54:34.996Z,95511.00
2019-04-01T17:00:17.505Z,95503.00
2019-04-01T17:05:47.279Z,95506.00
2019-04-01T17:11:18.161Z,95501.00
2019-04-01T17:16:47.701Z,95506.00
2019-04-01T17:22:17.409Z,95511.00
2019-04-01T17:27:46.859Z,95509.00
2019-04-01T17:33:17.364Z,95502.00
2019-04-01T17:38:48.286Z,95513.00
2019-04-01T17:44:18.431Z,95510.00
2019-04-01T17:49:50.412Z,95511.00
2019-04-01T17:55:21.709Z,95511.00
2019-04-01T18:00:53.527Z,95517.00
2019-04-01T18:06:23.071Z,95517.00
2019-04-01T18:11:52.968Z,95514.00
2019-04-01T18:17:22.512Z,95515.00
2019-04-01T18:22:52.257Z,95507.00
2019-04-01T18:28:21.785Z,95522.00
2019-04-01T18:33:56.335Z,95526.00
2019-04-01T18:39:48.438Z,95519.00
2019-04-01T18:45:18.417Z,95520.00
2019-04-01T18:50:50.170Z,95525.00
2019-04-01T18:56:21.378Z,95532.00
2019-04-01T19:01:51.417Z,95535.00
2019-04-01T19:07:22.356Z,95529.00
2019-04-01T19:13:04.706Z,95535.00
2019-04-01T19:18:41.900Z,95530.00
2019-04-01T19:24:11.274Z,95537.00
2019-04-01T19:29:42.876Z,95536.00
2019-04-01T19:35:12.488Z,95544.00
2019-04-01T19:40:41.799Z,95537.00
2019-04-01T19:46:12.037Z,95541.00
2019-04-01T19:51:41.336Z,95540.00
2019-04-01T19:57:13.295Z,95533.00
2019-04-01T20:03:02.245Z,95532.00
2019-04-01T20:08:31.700Z,95537.00
2019-04-01T20:14:01.782Z,95526.00
2019-04-01T20:19:31.500Z,95526.00
2019-04-01T20:25:01.029Z,95529.00
2019-04-01T20:30:30.666Z,95523.00
2019-04-01T20:36:00.174Z,95524.00
2019-04-01T20:41:29.847Z,95528.00
2019-04-01T20:47:00.444Z,95521.00
2019-04-01T20:52:30.309Z,95519.00
2019-04-01T20:58:00.289Z,95516.00
2019-04-01T21:03:30.296Z,95509.00
2019-04-01T21:09:00.200Z,95515.00
2019-04-01T21:14:29.875Z,95511.00
2019-04-01T21:19:59.405Z,95508.00
2019-04-01T21:25:30.039Z,95503.00
2019-04-01T21:31:00.900Z,95514.00
2019-04-01T21:36:32.151Z,95502.00
2019-04-01T21:42:01.644Z,95491.00
2019-04-01T21:47:31.157Z,95498.00
2019-04-01T21:53:01.225Z,95494.00
2019-04-01T21:58:31.533Z,95486.00
2019-04-01T22:04:01.072Z,95484.00
2019-04-01T22:09:30.795Z,95477.00
2019-04-01T22:15:00.387Z,95467.00
2019-04-01T22:20:29.918Z,95462.00
2019-04-01T22:25:59.518Z,95470.00
2019-04-01T22:31:29.069Z,95458.00
2019-04-01T22:36:58.447Z,95462.00
2019-04-01T22:42:27.850Z,95448.00
2019-04-01T22:47:57.332Z,95442.00
2019-04-01T22:53:26.902Z,95434.00
2019-04-01T22:58:56.423Z,95440.00
2019-04-01T23:04:26.045Z,95437.00
2019-04-01T23:09:55.474Z,95429.00
2019-04-01T23:15:25.006Z,95419.00
2019-04-01T23:20:54.632Z,95418.00
2019-04-01T23:26:24.054Z,95414.00
2019-04-01T23:31:59.398Z,95409.00
2019-04-01T23:37:29.032Z,95403.00
2019-04-01T23:42:58.560Z,95400.00
2019-04-01T23:48:28.202Z,95404.00
2019-04-01T23:53:57.708Z,95408.00
2019-04-01T23:59:27.131Z,95401.00
